Somerville, MA (02145)

3:27 PM EDT on May 29, 2015 (GMT -0400)
Union Square | | Change Station
CLOSE
Current Station
Personal Weather Station
Location: Somerville, MA
Elevation: 36 ft
Nearby Weather Stations

Elev 36 ft 42.38 °N, 71.10 °W | Updated 8 minutes ago

Partly Cloudy
Partly Cloudy
77.9 °F
Feels Like 79 °F
N
2.7
Wind Variable Wind from WNW

Today
High -- | Low -- °F
--% Chance of Precip.
Yesterday
High -- | Low -- °F
Precip. -- in
5:11 AM 8:12 PM
Waxing Gibbous, 85% visible
Pressure 30.30 in
Visibility 10.0 miles
Clouds Few 100 ft
Scattered Clouds 5500 ft
Heat Index 79 °F
Dew Point 60 °F
Humidity 55%
Rainfall 0.00 in
Snow Depth Not available.
UV 7 out of 12
Pollen 8.40 out of 12
Air Quality Not available.
Flu Activity Local Activity
METAR KBOS 291854Z 08008KT 10SM BCFG FEW001 SCT055 19/16 A3030 RMK AO2 SLP258 BCFG FEW001 T01940156

More Conditions Fewer Conditions

Pressure 30.30 in
Visibility 10.0 miles
Clouds Few 100 ft
Scattered Clouds 5500 ft
Heat Index 79 °F
Dew Point 60 °F
Humidity 55%
Rainfall 0.00 in
Snow Depth Not available.
UV 7 out of 12
Pollen 8.40 out of 12
Air Quality Not available.
Flu Activity Local Activity
METAR KBOS 291854Z 08008KT 10SM BCFG FEW001 SCT055 19/16 A3030 RMK AO2 SLP258 BCFG FEW001 T01940156

More Conditions Fewer Conditions

10-Day Weather Forecast

Almanac

Astronomy

May. 29, 2015 Rise Set
Actual Time
Civil Twilight
Nautical Twilight
Astronomical Twilight
Moon
Length of Visible Light
Length of Day
Tomorrow will be .
, % of the Moon is Illuminated

Today's Extremes

State Highs State Lows

Community

WunderPhotos

Upload Photos

1,825,330 photos uploaded!

WunderBlogs® & News

Nearby

Air Quality

  Air Quality AQ Index Pollutant
Not available.

Snow Depth

Station Depth Elevation

Earthquake Activity

City Distance Mag. Time & Date
Minimum magnitude displayed is 2.5.

Coastal Water Temperatures

Place Temperature

Stations

Nearby Weather Stations

Station Location Temp. Windchill Dew Point Humidity Wind Precip. Elev Updated Type